createdAt,value
2022-12-03T00:12:29.308Z,2.5
2022-12-03T00:24:31.375Z,2.6
2022-12-03T00:36:29.603Z,2.5
2022-12-03T00:42:38.393Z,2.5
2022-12-03T00:55:59.078Z,2.5
2022-12-03T01:02:00.328Z,2.5
2022-12-03T01:07:52.777Z,2.4
2022-12-03T01:13:47.711Z,2.5
2022-12-03T01:19:48.370Z,2.5
2022-12-03T01:32:34.321Z,2.3
2022-12-03T01:39:05.226Z,2.3
2022-12-03T02:09:26.594Z,2.4
2022-12-03T08:18:23.646Z,2.1
2022-12-03T08:24:22.305Z,2
2022-12-03T08:31:50.305Z,2.1
2022-12-03T08:38:19.836Z,2.2
2022-12-03T08:44:13.339Z,2.1
2022-12-03T09:54:24.824Z,2.2
2022-12-03T10:07:04.954Z,2.3
2022-12-03T10:13:12.172Z,2.4
2022-12-03T10:19:26.316Z,2.5
2022-12-03T10:32:07.563Z,2.3
2022-12-03T10:44:13.168Z,2.3
2022-12-03T10:50:33.230Z,2.5
2022-12-03T10:56:26.689Z,2.4
2022-12-03T11:08:12.852Z,2.5
2022-12-03T11:33:00.982Z,2.6
2022-12-03T11:39:20.262Z,2.5
2022-12-03T11:57:34.635Z,2.6
2022-12-03T12:22:18.483Z,2.6
2022-12-03T12:34:49.091Z,2.9
2022-12-03T12:40:41.027Z,2.8
2022-12-03T12:46:48.274Z,2.8
2022-12-03T13:12:06.864Z,2.9
2022-12-03T13:25:03.496Z,2.7
2022-12-03T13:38:21.370Z,2.8
2022-12-03T13:51:46.077Z,2.8
2022-12-03T14:04:20.788Z,2.9
2022-12-03T14:10:31.694Z,2.8
2022-12-03T14:17:02.553Z,2.8
2022-12-03T14:23:08.251Z,3.1
2022-12-03T14:35:10.193Z,2.9
2022-12-03T14:41:01.661Z,2.9
2022-12-03T14:46:57.223Z,3
2022-12-03T14:52:56.344Z,2.9
2022-12-03T14:58:47.313Z,2.8
2022-12-03T15:04:39.152Z,2.8
2022-12-03T15:10:34.349Z,2.9
2022-12-03T15:16:30.789Z,2.9
2022-12-03T15:22:28.863Z,3
2022-12-03T15:28:20.160Z,2.8
2022-12-03T15:34:16.139Z,2.8
2022-12-03T15:40:12.174Z,2.9
2022-12-03T15:46:30.525Z,2.9
2022-12-03T15:52:29.840Z,2.8
2022-12-03T15:58:34.162Z,2.8
2022-12-03T16:04:27.128Z,2.8
2022-12-03T16:10:25.283Z,3
2022-12-03T16:16:19.356Z,2.9
2022-12-03T16:22:21.233Z,2.8
2022-12-03T16:28:26.800Z,2.8
2022-12-03T16:34:23.706Z,2.9
2022-12-03T16:46:39.516Z,2.9
2022-12-03T16:52:53.493Z,2.8
2022-12-03T16:58:49.897Z,3
2022-12-03T17:05:07.894Z,3
2022-12-03T17:11:01.121Z,2.9
2022-12-03T17:17:10.395Z,2.8
2022-12-03T17:23:11.403Z,2.8
2022-12-03T17:29:17.675Z,2.8
2022-12-03T17:35:10.624Z,2.8
2022-12-03T17:41:14.985Z,3
2022-12-03T17:47:13.063Z,3
2022-12-03T17:53:11.059Z,2.9
2022-12-03T17:59:24.979Z,3.1
2022-12-03T18:05:38.057Z,2.9
2022-12-03T18:11:32.214Z,2.9
2022-12-03T18:17:25.281Z,2.9
2022-12-03T18:23:19.394Z,2.8
2022-12-03T18:29:14.464Z,3
2022-12-03T18:35:16.974Z,2.9
2022-12-03T18:41:15.241Z,3
2022-12-03T18:47:37.215Z,2.9
2022-12-03T18:53:44.510Z,2.8
2022-12-03T18:59:37.647Z,3
2022-12-03T19:05:30.973Z,2.8
2022-12-03T19:11:38.382Z,2.9
2022-12-03T19:17:35.542Z,2.9
2022-12-03T19:23:29.480Z,2.8
2022-12-03T19:30:07.511Z,3
2022-12-03T19:36:21.343Z,2.9
2022-12-03T19:42:20.105Z,2.8
2022-12-03T19:48:13.358Z,2.8
2022-12-03T19:54:19.421Z,2.8
2022-12-03T20:00:26.889Z,2.9
2022-12-03T20:12:38.940Z,3
2022-12-03T20:18:34.512Z,2.8
2022-12-03T20:24:41.209Z,2.8
2022-12-03T20:30:37.740Z,2.7
2022-12-03T20:36:48.136Z,2.7
2022-12-03T20:42:56.761Z,2.9
2022-12-03T20:49:03.676Z,2.7
2022-12-03T21:40:39.184Z,2.7
